Terminal Aerodrome Forecast
Issued by NWS Charleston, WV

Current Version | Previous Version | Text Only | Print | Product List | Glossary Off
Versions: 1 2 3 4 5 6 7 8 9 10 11 12 13 14 15 16 17 18 19 20 21 22 23 24 25 26 27

000
FTUS41 KRLX 181100
TAFEKN
TAF
KEKN 181126Z 1812/1912 00000KT 1SM BR BKN002 BKN040
     FM181300 14005KT 3SM BR SCT001 BKN040
     FM181400 14004KT 6SM BR OVC035
     FM181600 15005KT 5SM SHRA BR VCTS OVC020CB
     FM190000 00000KT 5SM BR VCTS BKN015CB
     FM190200 00000KT 2SM BR VCTS BKN015CB
     FM190300 00000KT 1SM BR SCT001 BKN008=

USA.gov is the U.S. government's official web portal to all federal, state and local government web resources and services.